Time;durP1;ratioP1;P1;durP2;ratioP2;P2;SDS_P1;SDS_P2;PMS_P1;PMS_P2;Temp;Humidity;BMP_temperature;BMP_pressure;BME280_temperature;BME280_humidity;BME280_pressure;Samples;Min_cycle;Max_cycle;Signal;HPM_P1;HPM_P2
2021/10/29 00:02:18;;;;;;;9.52;5.32;;;;;;;11.07;100.00;100856.59;4998843;28;20841;-57
2021/10/29 00:05:04;;;;;;;11.93;5.55;;;;;;;11.02;100.00;100866.31;5014512;28;20123;-60
2021/10/29 00:07:52;;;;;;;12.63;5.47;;;;;;;10.92;100.00;100864.63;5026595;28;20107;-58
2021/10/29 00:10:37;;;;;;;13.98;5.50;;;;;;;10.77;100.00;100862.00;4996322;28;20064;-55
2021/10/29 00:13:22;;;;;;;9.50;5.40;;;;;;;10.76;100.00;100861.13;5012310;28;20565;-61
2021/10/29 00:16:06;;;;;;;8.88;5.13;;;;;;;10.78;100.00;100853.16;5023849;28;20083;-62
2021/10/29 00:18:51;;;;;;;10.63;4.72;;;;;;;10.84;100.00;100861.13;5026465;28;20455;-62
2021/10/29 00:21:35;;;;;;;9.95;5.03;;;;;;;10.87;100.00;100866.38;5027277;28;20049;-57
2021/10/29 00:24:20;;;;;;;13.02;5.75;;;;;;;10.90;100.00;100874.34;5022665;28;20534;-61
2021/10/29 00:27:07;;;;;;;13.25;5.47;;;;;;;10.86;100.00;100881.44;5028344;28;20052;-56
2021/10/29 00:29:54;;;;;;;9.50;5.78;;;;;;;10.86;100.00;100892.06;5025204;28;20468;-64
2021/10/29 00:32:38;;;;;;;12.07;5.70;;;;;;;10.86;100.00;100885.84;5029059;28;20092;-60
2021/10/29 00:35:23;;;;;;;9.40;5.55;;;;;;;10.88;100.00;100869.03;5025819;28;20064;-60
2021/10/29 00:38:08;;;;;;;10.32;5.70;;;;;;;11.02;100.00;100888.44;5026350;28;20428;-58
2021/10/29 00:40:53;;;;;;;14.77;5.85;;;;;;;11.01;100.00;100878.72;4997426;28;20048;-60
2021/10/29 00:43:38;;;;;;;11.18;6.03;;;;;;;11.09;100.00;100876.03;5024005;28;20060;-61
2021/10/29 00:46:23;;;;;;;11.50;5.72;;;;;;;11.13;100.00;100875.13;5025377;28;20103;-58
2021/10/29 00:49:08;;;;;;;9.98;5.65;;;;;;;11.14;100.00;100866.28;4996290;28;20183;-60
2021/10/29 00:51:53;;;;;;;9.10;5.45;;;;;;;11.17;100.00;100869.81;5026335;28;20068;-61
2021/10/29 00:54:41;;;;;;;9.23;5.22;;;;;;;11.18;100.00;100874.22;5020097;28;20095;-62
2021/10/29 00:57:26;;;;;;;11.10;5.45;;;;;;;11.22;100.00;100880.38;5024647;28;20145;-61
2021/10/29 01:00:12;;;;;;;8.70;5.00;;;;;;;11.24;100.00;100879.47;5023754;28;20083;-63
2021/10/29 01:02:58;;;;;;;12.75;6.05;;;;;;;11.16;100.00;100891.06;5009003;28;20123;-62
2021/10/29 01:05:43;;;;;;;13.88;5.97;;;;;;;10.92;100.00;100893.81;5026609;28;20556;-58
2021/10/29 01:08:34;;;;;;;13.13;6.32;;;;;;;10.97;100.00;100898.22;5027244;28;20099;-60
2021/10/29 01:11:20;;;;;;;16.52;6.20;;;;;;;10.95;100.00;100894.66;5011542;28;20574;-61
2021/10/29 01:14:05;;;;;;;13.32;5.90;;;;;;;10.97;100.00;100889.34;5012224;28;20516;-58
2021/10/29 01:16:50;;;;;;;11.85;5.85;;;;;;;11.04;100.00;100894.63;5025900;28;20060;-59
2021/10/29 01:19:40;;;;;;;11.73;6.18;;;;;;;11.13;100.00;100891.06;5015845;28;20103;-61
2021/10/29 01:22:26;;;;;;;11.43;5.78;;;;;;;11.14;100.00;100903.44;5026539;28;20096;-59
2021/10/29 01:25:12;;;;;;;13.60;5.85;;;;;;;11.06;100.00;100895.50;5010243;28;20516;-59
2021/10/29 01:27:57;;;;;;;14.52;5.65;;;;;;;11.06;100.00;100905.25;5026722;28;20471;-59
2021/10/29 01:30:42;;;;;;;;;;;;;;;11.07;100.00;100907.03;5021260;28;20433;-62
2021/10/29 01:33:31;;;;;;;8.88;5.00;;;;;;;11.07;100.00;100899.94;5030214;28;19997;-61
2021/10/29 01:36:15;;;;;;;11.65;5.68;;;;;;;11.10;100.00;100886.66;5025749;28;20056;-56
2021/10/29 01:39:00;;;;;;;13.93;6.28;;;;;;;10.95;100.00;100884.06;5019464;28;20836;-55
2021/10/29 01:41:44;;;;;;;15.27;6.78;;;;;;;10.78;100.00;100890.31;5027813;28;20127;-56
2021/10/29 01:44:29;;;;;;;11.05;6.25;;;;;;;10.55;100.00;100882.41;5026159;28;20203;-59
2021/10/29 01:47:14;;;;;;;13.53;6.43;;;;;;;10.49;100.00;100885.09;5026224;28;20052;-62
2021/10/29 01:50:00;;;;;;;16.08;6.75;;;;;;;10.69;100.00;100885.03;5018858;28;20395;-64
2021/10/29 01:52:45;;;;;;;13.07;6.43;;;;;;;10.89;100.00;100900.00;5027155;28;20056;-57
2021/10/29 01:55:30;;;;;;;15.30;6.80;;;;;;;10.98;100.00;100896.41;5017782;28;20096;-59
2021/10/29 01:58:15;;;;;;;13.43;6.43;;;;;;;11.03;100.00;100876.94;5015337;28;20073;-60
2021/10/29 02:01:02;;;;;;;14.48;6.70;;;;;;;11.05;100.00;100882.25;5025142;28;20948;-57
2021/10/29 02:03:48;;;;;;;14.68;6.53;;;;;;;10.54;100.00;100879.75;5027547;28;20049;-58
2021/10/29 02:06:32;;;;;;;13.13;7.25;;;;;;;9.98;100.00;100870.94;5017930;28;20099;-57
2021/10/29 02:09:17;;;;;;;15.32;7.20;;;;;;;9.96;100.00;100875.38;5010912;28;20080;-63
2021/10/29 02:12:02;;;;;;;14.75;7.40;;;;;;;9.91;100.00;100887.72;5025330;28;20550;-58
2021/10/29 02:14:47;;;;;;;15.48;6.82;;;;;;;10.08;100.00;100891.31;5014802;28;20099;-58
2021/10/29 02:17:32;;;;;;;16.92;7.65;;;;;;;10.21;100.00;100888.63;5026258;28;20076;-59
2021/10/29 02:20:16;;;;;;;13.48;7.28;;;;;;;10.04;100.00;100895.69;5027082;28;20052;-57
2021/10/29 02:23:01;;;;;;;19.52;7.90;;;;;;;9.70;100.00;100885.06;5025821;28;20129;-60
2021/10/29 02:25:46;;;;;;;14.82;7.05;;;;;;;9.81;100.00;100897.44;5011236;28;20103;-58
2021/10/29 02:28:31;;;;;;;15.68;7.38;;;;;;;9.93;100.00;100907.16;5007653;28;20044;-60
2021/10/29 02:31:16;;;;;;;16.52;7.32;;;;;;;9.95;100.00;100911.59;5007440;28;20078;-58
2021/10/29 02:34:02;;;;;;;17.15;7.85;;;;;;;9.99;100.00;100894.81;5021981;28;20103;-56
2021/10/29 02:36:47;;;;;;;16.20;7.40;;;;;;;10.01;100.00;100903.63;5021925;28;20416;-59
2021/10/29 02:39:32;;;;;;;;;;;;;;;9.88;100.00;100898.34;4992466;28;20056;-58
2021/10/29 02:42:16;;;;;;;17.77;7.50;;;;;;;9.52;100.00;100888.56;5002099;28;19928;-57
2021/10/29 02:45:01;;;;;;;13.10;7.20;;;;;;;9.78;100.00;100901.84;5023439;28;20064;-58
2021/10/29 02:47:48;;;;;;;16.10;6.90;;;;;;;9.77;100.00;100906.25;5023609;28;20080;-56
2021/10/29 02:50:36;;;;;;;17.55;7.82;;;;;;;9.66;100.00;100901.84;5025266;28;20055;-56
2021/10/29 02:53:21;;;;;;;18.10;8.73;;;;;;;9.40;100.00;100896.47;5010467;28;20625;-60
2021/10/29 02:56:07;;;;;;;16.73;7.93;;;;;;;9.51;100.00;100885.03;5010564;28;20056;-59
2021/10/29 02:58:53;;;;;;;17.30;7.88;;;;;;;9.42;100.00;100898.25;5025817;28;20114;-57
2021/10/29 03:01:37;;;;;;;15.00;7.25;;;;;;;9.31;100.00;100905.25;5017660;28;20075;-64
2021/10/29 03:04:22;;;;;;;16.23;7.20;;;;;;;9.31;100.00;100909.69;5025759;28;20091;-63
2021/10/29 03:07:07;;;;;;;;;;;;;;;9.55;100.00;100910.63;5010164;28;20127;-60
2021/10/29 03:09:52;;;;;;;20.20;7.75;;;;;;;9.80;100.00;100916.84;5026742;28;20018;-58
2021/10/29 03:12:38;;;;;;;23.27;8.35;;;;;;;10.01;100.00;100921.31;5009060;28;20977;-57
2021/10/29 03:15:25;;;;;;;17.50;8.32;;;;;;;10.13;100.00;100910.75;5024536;28;20060;-65
2021/10/29 03:18:10;;;;;;;20.75;8.63;;;;;;;10.10;100.00;100905.44;5010138;28;20112;-60
2021/10/29 03:20:55;;;;;;;19.95;8.43;;;;;;;10.00;100.00;100925.72;5021826;28;20072;-63
2021/10/29 03:23:39;;;;;;;14.02;6.43;;;;;;;9.55;100.00;100915.91;5025768;28;20057;-57
2021/10/29 03:26:24;;;;;;;11.18;6.10;;;;;;;9.47;100.00;100917.66;5023141;28;20056;-65
2021/10/29 03:29:08;;;;;;;14.63;6.55;;;;;;;9.39;100.00;100927.34;5025915;28;20099;-58
2021/10/29 03:31:52;;;;;;;11.80;6.50;;;;;;;9.37;100.00;100912.34;5026529;28;20107;-58
2021/10/29 03:34:37;;;;;;;12.48;6.05;;;;;;;9.33;100.00;100926.44;5015445;28;20051;-56
2021/10/29 03:40:53;;;;;;;10.60;5.10;;;;;;;9.02;100.00;100922.81;5007852;28;20075;-58
2021/10/29 03:43:31;;;;;;;12.18;5.07;;;;;;;9.17;100.00;100936.09;5023212;28;20056;-60
2021/10/29 03:46:19;;;;;;;10.65;5.40;;;;;;;9.13;100.00;100938.72;5009198;28;20156;-62
2021/10/29 03:49:19;;;;;;;12.23;4.80;;;;;;;8.94;100.00;100942.16;5025031;28;20052;-63
2021/10/29 03:52:21;;;;;;;17.65;6.18;;;;;;;8.89;100.00;100931.56;5007476;28;20068;-61
2021/10/29 03:55:08;;;;;;;10.75;5.30;;;;;;;8.94;100.00;100940.41;5023221;28;20048;-67
2021/10/29 03:57:53;;;;;;;9.77;5.05;;;;;;;8.68;100.00;100943.78;5009950;28;20100;-68
2021/10/29 04:00:37;;;;;;;11.20;5.00;;;;;;;8.56;100.00;100951.63;5022434;28;20061;-62
2021/10/29 04:03:22;;;;;;;16.63;5.07;;;;;;;8.45;100.00;100941.00;5025537;28;20527;-62
2021/10/29 04:06:08;;;;;;;11.90;5.40;;;;;;;8.45;100.00;100948.03;5026403;28;20055;-62
2021/10/29 04:08:56;;;;;;;18.73;5.75;;;;;;;8.53;100.00;100941.94;5025396;28;20076;-67
2021/10/29 04:11:42;;;;;;;11.27;5.47;;;;;;;8.48;100.00;100929.56;5023990;28;20055;-60
2021/10/29 04:14:28;;;;;;;16.50;6.25;;;;;;;8.50;100.00;100935.72;5021874;28;20076;-66
2021/10/29 04:17:13;;;;;;;13.85;5.22;;;;;;;8.43;100.00;100926.84;5025195;28;20173;-60
2021/10/29 04:19:58;;;;;;;19.35;6.00;;;;;;;8.42;100.00;100930.38;5022796;28;20125;-61
2021/10/29 04:22:44;;;;;;;16.67;6.20;;;;;;;8.32;100.00;100927.66;5023054;28;20048;-64
2021/10/29 04:25:30;;;;;;;12.70;5.22;;;;;;;8.45;100.00;100935.69;5010432;28;20053;-65
2021/10/29 04:28:15;;;;;;;17.42;6.05;;;;;;;8.45;100.00;100932.16;5003231;28;20459;-69
2021/10/29 04:31:03;;;;;;;17.48;6.28;;;;;;;8.20;100.00;100938.13;5027472;28;20095;-65
2021/10/29 04:33:50;;;;;;;17.08;6.47;;;;;;;8.22;100.00;100934.63;5024026;28;20043;-62
2021/10/29 04:36:34;;;;;;;13.63;6.03;;;;;;;8.30;100.00;100932.94;5028599;28;20056;-62
2021/10/29 04:39:20;;;;;;;21.30;6.13;;;;;;;8.27;100.00;100932.91;5027291;28;20047;-64
2021/10/29 04:42:06;;;;;;;19.50;6.68;;;;;;;8.20;100.00;100930.19;5025183;28;20049;-65
2021/10/29 04:44:50;;;;;;;15.48;6.55;;;;;;;8.30;100.00;100942.63;5027764;28;20080;-64
2021/10/29 04:47:35;;;;;;;13.60;6.55;;;;;;;8.45;100.00;100937.44;5026468;28;20099;-63
2021/10/29 04:50:20;;;;;;;16.85;7.65;;;;;;;8.58;100.00;100934.00;5029678;28;20052;-65
2021/10/29 04:53:05;;;;;;;16.67;7.97;;;;;;;8.43;100.00;100932.16;5013035;28;20102;-65
2021/10/29 04:55:52;;;;;;;15.68;6.88;;;;;;;8.45;100.00;100935.69;5014338;28;20051;-64
2021/10/29 04:58:36;;;;;;;13.15;7.30;;;;;;;8.52;100.00;100941.91;5011717;28;20132;-63
2021/10/29 05:01:21;;;;;;;11.52;7.60;;;;;;;8.64;100.00;100953.47;5026017;28;20056;-69
2021/10/29 05:04:05;;;;;;;17.38;7.38;;;;;;;8.51;100.00;100937.50;5027334;28;20444;-63
2021/10/29 05:06:50;;;;;;;13.75;7.50;;;;;;;8.43;100.00;100940.06;5025899;28;20133;-65
2021/10/29 05:09:34;;;;;;;14.88;8.50;;;;;;;8.35;100.00;100939.13;5027086;28;20514;-65
2021/10/29 05:12:19;;;;;;;17.23;8.02;;;;;;;8.35;100.00;100957.63;5026535;28;20059;-67
2021/10/29 05:15:04;;;;;;;14.68;7.50;;;;;;;8.28;100.00;100961.09;5025937;28;20083;-59
2021/10/29 05:17:49;;;;;;;12.25;7.68;;;;;;;8.39;100.00;100967.34;5028737;28;20056;-60
2021/10/29 05:20:33;;;;;;;16.73;9.30;;;;;;;8.31;100.00;100963.78;5026080;28;20068;-65
2021/10/29 05:23:18;;;;;;;18.58;11.32;;;;;;;8.33;100.00;100974.34;5026452;28;20076;-56
2021/10/29 05:26:02;;;;;;;21.23;12.45;;;;;;;8.47;100.00;100985.94;5025346;28;20084;-63
2021/10/29 05:28:47;;;;;;;25.38;13.52;;;;;;;8.45;100.00;100978.00;5027151;28;20059;-62
2021/10/29 05:31:32;;;;;;;21.75;11.70;;;;;;;8.68;100.00;100980.78;5024235;28;20052;-63
2021/10/29 05:34:17;;;;;;;21.65;10.48;;;;;;;8.77;100.00;100981.75;5025412;28;20421;-62
2021/10/29 05:37:03;;;;;;;18.52;10.73;;;;;;;8.84;100.00;100975.63;4996744;28;20057;-65
2021/10/29 05:39:48;;;;;;;15.70;11.18;;;;;;;8.70;100.00;100990.50;4997265;28;20091;-65
2021/10/29 05:42:36;;;;;;;19.13;10.85;;;;;;;8.75;100.00;100988.75;5020356;28;20072;-64
2021/10/29 05:45:21;;;;;;;18.52;10.73;;;;;;;8.48;100.00;100983.31;5017975;28;20128;-61
2021/10/29 05:48:07;;;;;;;17.25;10.70;;;;;;;8.62;100.00;100986.94;5026196;28;20044;-63
2021/10/29 05:50:54;;;;;;;18.35;9.80;;;;;;;8.71;100.00;100984.34;4998695;28;20676;-67
2021/10/29 05:53:53;;;;;;;13.02;8.55;;;;;;;8.64;100.00;100989.59;5009398;28;20064;-63
2021/10/29 05:56:38;;;;;;;12.52;8.15;;;;;;;8.65;100.00;100994.00;4993598;28;20103;-64
2021/10/29 05:59:23;;;;;;;14.30;8.05;;;;;;;8.62;100.00;100988.66;5009751;28;20056;-63
2021/10/29 06:02:09;;;;;;;13.52;7.50;;;;;;;8.69;100.00;100995.78;5010003;28;20532;-67
2021/10/29 06:04:54;;;;;;;11.95;6.78;;;;;;;8.71;100.00;100999.34;5012087;28;20094;-69
2021/10/29 06:07:40;;;;;;;13.27;7.40;;;;;;;8.80;100.00;100997.66;4997537;28;20060;-70
2021/10/29 06:10:25;;;;;;;11.82;6.65;;;;;;;8.97;100.00;100988.03;5007965;28;20095;-65
2021/10/29 06:13:10;;;;;;;11.25;6.93;;;;;;;9.08;100.00;100994.28;5022054;28;20060;-62
2021/10/29 06:15:55;;;;;;;11.95;7.20;;;;;;;9.16;100.00;101012.84;5018634;28;20056;-63
2021/10/29 06:18:40;;;;;;;9.35;6.43;;;;;;;9.13;100.00;100999.56;5011571;28;20130;-65
2021/10/29 06:21:40;;;;;;;10.37;6.20;;;;;;;9.20;100.00;101009.34;5010558;28;20091;-73
2021/10/29 06:24:29;;;;;;;9.35;5.35;;;;;;;9.02;100.00;100999.53;5022933;28;20323;-60
2021/10/29 06:30:05;;;;;;;8.18;5.05;;;;;;;9.17;100.00;101004.91;5026800;28;20063;-68
2021/10/29 06:32:49;;;;;;;8.40;5.28;;;;;;;9.10;100.00;101011.03;5016809;28;20056;-65
2021/10/29 06:35:34;;;;;;;7.90;5.63;;;;;;;9.07;100.00;101008.38;4986880;28;20127;-64
2021/10/29 06:38:19;;;;;;;8.70;5.65;;;;;;;9.10;100.00;101013.69;5006246;28;20120;-64
2021/10/29 06:41:04;;;;;;;8.65;5.40;;;;;;;9.05;100.00;101011.88;5017450;28;20129;-63
2021/10/29 06:44:06;;;;;;;7.25;4.40;;;;;;;8.96;100.00;101010.09;5020196;28;20552;-65
2021/10/29 07:01:53;;;;;;;5.72;4.00;;;;;;;9.14;100.00;101004.03;5014335;28;20061;-66
2021/10/29 07:41:11;;;;;;;6.38;3.60;;;;;;;9.16;100.00;100978.44;5019496;28;20516;-64
2021/10/29 07:44:00;;;;;;;6.60;3.40;;;;;;;9.19;100.00;100989.03;5019377;28;20470;-68
2021/10/29 07:46:45;;;;;;;7.82;3.85;;;;;;;9.35;100.00;100981.16;5016511;28;20464;-68
2021/10/29 07:49:30;;;;;;;6.18;3.60;;;;;;;9.71;100.00;100992.75;5013538;28;20416;-65
2021/10/29 07:52:15;;;;;;;6.38;2.85;;;;;;;9.90;100.00;100982.25;5020727;28;20052;-62
2021/10/29 07:55:00;;;;;;;6.22;4.10;;;;;;;10.13;100.00;100977.00;5017587;28;20087;-63
2021/10/29 07:57:47;;;;;;;5.18;3.53;;;;;;;10.19;100.00;100979.63;5001051;28;20405;-65
2021/10/29 08:00:33;;;;;;;5.10;3.38;;;;;;;10.39;100.00;100977.88;5014451;28;20528;-66
2021/10/29 08:03:19;;;;;;;4.78;3.25;;;;;;;10.41;100.00;100976.13;5017482;28;20048;-63
2021/10/29 08:06:03;;;;;;;6.45;3.63;;;;;;;10.75;100.00;100973.44;5020930;28;20084;-65
2021/10/29 08:08:50;;;;;;;;;;;;;;;11.46;100.00;100968.78;5018845;28;21234;-67
2021/10/29 08:11:35;;;;;;;4.63;3.25;;;;;;;11.89;100.00;100970.38;5004837;28;19924;-64
2021/10/29 08:14:22;;;;;;;5.05;3.17;;;;;;;11.20;100.00;100949.41;5005363;28;20048;-65
2021/10/29 08:17:07;;;;;;;4.88;3.38;;;;;;;11.21;100.00;100955.63;5017956;28;20100;-67
2021/10/29 08:19:54;;;;;;;7.18;3.90;;;;;;;10.90;100.00;100952.19;5020146;28;20052;-64
2021/10/29 08:22:42;;;;;;;8.15;3.80;;;;;;;10.67;100.00;100953.09;4997736;28;20875;-62
2021/10/29 08:25:26;;;;;;;5.43;4.00;;;;;;;10.59;100.00;100957.53;5020846;28;20563;-63
2021/10/29 08:28:11;;;;;;;4.03;3.20;;;;;;;10.60;100.00;100954.03;5016017;28;20135;-62
2021/10/29 08:30:56;;;;;;;7.10;3.45;;;;;;;10.45;100.00;100951.38;5017920;28;20106;-65
2021/10/29 08:33:43;;;;;;;6.55;4.30;;;;;;;10.16;100.00;100950.50;5009302;28;20487;-64
2021/10/29 08:36:29;;;;;;;5.28;3.40;;;;;;;10.20;100.00;100939.03;5001862;28;20520;-62
2021/10/29 08:39:14;;;;;;;5.72;3.03;;;;;;;10.16;100.00;100951.38;5021030;28;20059;-64
2021/10/29 08:42:01;;;;;;;5.28;3.63;;;;;;;10.31;100.00;100948.72;5024689;28;20788;-59
2021/10/29 08:44:49;;;;;;;5.38;2.80;;;;;;;10.16;100.00;100954.03;5002584;28;20057;-69
2021/10/29 08:47:40;;;;;;;5.97;3.42;;;;;;;10.23;100.00;100954.91;5019427;28;20099;-65
2021/10/29 08:50:25;;;;;;;5.15;3.00;;;;;;;10.15;100.00;100954.00;5017573;28;20053;-63
2021/10/29 08:53:09;;;;;;;;;;;;;;;10.15;100.00;100954.00;5017890;28;20398;-67
2021/10/29 08:56:00;;;;;;;6.38;3.10;;;;;;;10.01;100.00;100966.34;5021060;28;19924;-66
2021/10/29 08:59:13;;;;;;;6.90;3.60;;;;;;;10.02;100.00;100950.47;5021581;28;20215;-67
2021/10/29 09:02:05;;;;;;;4.28;3.20;;;;;;;10.03;100.00;100953.97;5007062;28;20099;-65
2021/10/29 09:04:56;;;;;;;4.95;3.10;;;;;;;9.81;100.00;100946.91;5024527;28;20091;-60
2021/10/29 09:32:43;;;;;;;;;;;;;;;10.17;100.00;100925.75;4948218;28;20078;-65
2021/10/29 09:35:35;;;;;;;4.72;3.15;;;;;;;10.05;100.00;100923.06;4950495;28;20371;-64
2021/10/29 09:38:20;;;;;;;5.82;3.00;;;;;;;10.12;100.00;100924.88;4943996;29;20058;-71
2021/10/29 09:41:25;;;;;;;6.97;2.90;;;;;;;10.08;100.00;100904.56;4942272;29;20046;-62
2021/10/29 09:44:19;;;;;;;4.97;3.25;;;;;;;10.20;100.00;100912.50;4917857;28;20066;-63
2021/10/29 09:47:05;;;;;;;4.93;3.20;;;;;;;10.15;100.00;100901.91;4939385;29;20062;-63
2021/10/29 09:50:06;;;;;;;6.68;3.63;;;;;;;10.17;100.00;100918.66;4954388;28;20050;-65
2021/10/29 09:53:06;;;;;;;5.63;3.83;;;;;;;10.18;100.00;100911.63;4962159;28;20141;-66
2021/10/29 09:55:58;;;;;;;5.47;2.85;;;;;;;10.02;100.00;100925.72;4962390;28;20450;-57
2021/10/29 09:58:45;;;;;;;4.57;3.03;;;;;;;9.96;100.00;100907.19;4998622;28;20561;-64
2021/10/29 10:01:34;;;;;;;4.05;2.90;;;;;;;10.09;100.00;100904.53;4998514;28;20109;-69
2021/10/29 10:04:19;;;;;;;5.35;3.08;;;;;;;10.14;100.00;100896.59;5009956;28;20053;-65
2021/10/29 10:07:05;;;;;;;6.50;2.83;;;;;;;10.31;100.00;100897.47;4990118;28;20525;-67
2021/10/29 10:09:58;;;;;;;6.10;3.35;;;;;;;10.07;100.00;100892.19;5009848;28;20093;-65
2021/10/29 10:12:46;;;;;;;7.07;3.20;;;;;;;10.17;100.00;100888.66;4997270;28;20048;-64
2021/10/29 10:15:35;;;;;;;6.15;3.30;;;;;;;10.09;100.00;100882.47;5012532;28;20133;-66
2021/10/29 10:18:25;;;;;;;6.20;3.42;;;;;;;10.15;100.00;100901.91;4998570;28;20049;-68
2021/10/29 10:21:19;;;;;;;4.75;3.10;;;;;;;10.24;100.00;100886.00;5010112;28;20601;-66
2021/10/29 10:24:15;;;;;;;8.07;3.45;;;;;;;10.26;100.00;100880.69;4997181;28;20049;-66
2021/10/29 10:30:36;;;;;;;7.65;3.10;;;;;;;10.24;100.00;100872.72;5010044;28;20417;-66
2021/10/29 10:42:53;;;;;;;5.80;3.30;;;;;;;10.34;100.00;100878.91;4996558;28;20102;-65
2021/10/29 10:46:04;;;;;;;5.03;2.80;;;;;;;10.38;100.00;100888.63;4998533;28;20161;-74
2021/10/29 10:51:46;;;;;;;9.50;2.95;;;;;;;10.35;100.00;100897.47;4998877;28;20474;-62
2021/10/29 11:00:50;;;;;;;6.97;2.55;;;;;;;10.71;100.00;100892.09;4981291;28;20045;-66
2021/10/29 11:10:05;;;;;;;3.90;2.22;;;;;;;10.65;100.00;100894.78;4968105;28;20101;-64
2021/10/29 11:12:54;;;;;;;6.00;2.20;;;;;;;10.57;100.00;100877.09;4957008;28;20049;-63
2021/10/29 11:15:40;;;;;;;3.83;1.90;;;;;;;10.67;100.00;100885.03;4966926;28;20125;-69
2021/10/29 11:18:30;;;;;;;5.10;2.30;;;;;;;10.71;100.00;100893.84;4969375;28;20049;-73
2021/10/29 11:21:23;;;;;;;7.93;2.15;;;;;;;10.68;100.00;100896.53;4980074;28;20093;-65
2021/10/29 11:24:13;;;;;;;4.30;1.88;;;;;;;10.51;100.00;100863.84;4982195;28;20596;-68
2021/10/29 11:27:11;;;;;;;3.03;2.00;;;;;;;10.76;100.00;100887.66;4983310;28;20057;-63
2021/10/29 11:29:59;;;;;;;3.60;2.38;;;;;;;10.76;100.00;100889.44;4975210;28;20136;-65
2021/10/29 11:32:53;;;;;;;3.80;2.03;;;;;;;10.95;100.00;100888.50;4961419;28;20053;-66
2021/10/29 11:35:39;;;;;;;6.85;2.42;;;;;;;10.97;100.00;100882.28;5003086;28;20520;-64
2021/10/29 11:38:29;;;;;;;6.50;2.38;;;;;;;10.92;100.00;100873.44;4986379;28;20056;-66
2021/10/29 11:41:20;;;;;;;5.03;2.17;;;;;;;10.99;100.00;100879.63;5006000;28;20457;-69
2021/10/29 11:44:13;;;;;;;4.68;2.10;;;;;;;11.15;100.00;100882.19;5008898;28;20061;-74
2021/10/29 11:46:58;;;;;;;4.43;1.65;;;;;;;11.19;100.00;100875.97;5007031;28;20136;-66
2021/10/29 11:49:42;;;;;;;5.03;1.88;;;;;;;11.21;100.00;100883.94;4990487;28;20052;-64
2021/10/29 11:52:30;;;;;;;4.93;1.67;;;;;;;11.18;100.00;100873.31;4999811;28;20053;-67
2021/10/29 11:55:29;;;;;;;2.47;1.60;;;;;;;11.12;100.00;100882.19;5000749;28;20061;-66
2021/10/29 11:58:34;;;;;;;3.63;1.90;;;;;;;11.14;100.00;100875.13;4999407;28;20107;-66
2021/10/29 12:01:32;;;;;;;;;;;;;;;11.26;100.00;100879.47;5017933;28;20081;-67
2021/10/29 12:07:25;;;;;;;6.03;3.22;;;;;;;11.46;100.00;100882.91;5004932;28;20008;-65
2021/10/29 12:10:21;;;;;;;7.88;3.35;;;;;;;11.60;100.00;100883.72;5003641;28;20063;-64
2021/10/29 12:13:09;;;;;;;6.55;2.47;;;;;;;11.55;100.00;100872.25;5002591;28;20145;-68
2021/10/29 12:15:55;;;;;;;6.30;2.40;;;;;;;11.60;100.00;100882.00;4999368;28;20052;-67
2021/10/29 12:18:53;;;;;;;4.68;1.95;;;;;;;11.43;100.00;100886.47;5014407;28;20200;-68
2021/10/29 12:21:45;;;;;;;6.13;2.33;;;;;;;11.13;100.00;100883.09;5000481;28;20087;-67
2021/10/29 12:24:32;;;;;;;3.90;1.80;;;;;;;11.10;100.00;100881.34;4999877;28;20062;-68
2021/10/29 12:28:27;;;;;;;6.50;2.40;;;;;;;11.27;100.00;100883.94;4997420;28;20552;-66
2021/10/29 12:30:51;;;;;;;5.55;1.70;;;;;;;11.14;100.00;100883.09;4998691;28;20088;-68
2021/10/29 13:04:20;;;;;;;5.77;2.13;;;;;;;11.18;100.00;100850.34;4914390;29;20142;-65
2021/10/29 13:07:06;;;;;;;4.57;2.42;;;;;;;11.43;100.00;100856.41;4909625;29;20059;-64
2021/10/29 13:10:10;;;;;;;5.35;1.80;;;;;;;11.30;100.00;100849.38;4929271;29;20058;-63
2021/10/29 13:13:03;;;;;;;5.90;1.90;;;;;;;11.17;100.00;100853.00;4910566;29;20067;-70
2021/10/29 13:15:48;;;;;;;8.07;1.80;;;;;;;11.25;100.00;100867.09;4939874;29;20073;-64
2021/10/29 13:18:53;;;;;;;6.95;1.98;;;;;;;11.08;100.00;100842.44;4915250;28;20156;-67
2021/10/29 14:34:42;;;;;;;7.88;2.85;;;;;;;11.20;100.00;100859.16;4946263;28;20049;-64
2021/10/29 14:37:39;;;;;;;6.63;2.60;;;;;;;11.14;100.00;100860.97;4939357;28;20050;-67
2021/10/29 14:40:38;;;;;;;6.97;2.40;;;;;;;11.00;100.00;100861.03;4960288;28;20070;-65
2021/10/29 14:43:40;;;;;;;8.25;2.67;;;;;;;10.95;100.00;100869.91;4964433;28;20186;-65
2021/10/29 15:14:42;;;;;;;3.97;2.72;;;;;;;10.99;100.00;100880.50;5008404;28;20432;-66
2021/10/29 15:16:50;;;;;;;5.57;3.90;;;;;;;11.06;100.00;100892.84;5021681;28;20052;-66
2021/10/29 15:29:37;;;;;;;7.25;3.25;;;;;;;11.26;100.00;100867.09;4950770;28;20098;-70
2021/10/29 15:32:09;;;;;;;7.93;3.50;;;;;;;11.37;100.00;100872.34;4959602;28;20234;-66
2021/10/29 15:52:23;;;;;;;7.65;4.35;;;;;;;11.44;100.00;100864.31;4964979;28;20053;-65
2021/10/29 15:55:11;;;;;;;8.40;3.90;;;;;;;11.43;100.00;100873.19;4961539;28;20058;-64
2021/10/29 16:01:13;;;;;;;9.15;3.67;;;;;;;11.51;100.00;100881.13;4962835;28;20045;-66
2021/10/29 16:18:59;;;;;;;7.75;3.70;;;;;;;11.34;100.00;100872.34;4998835;28;20564;-65
2021/10/29 16:21:47;;;;;;;11.32;4.65;;;;;;;11.44;100.00;100866.13;4983983;28;20068;-66
2021/10/29 16:24:35;;;;;;;7.40;3.72;;;;;;;11.52;100.00;100866.94;5004257;28;20233;-69
2021/10/29 16:27:21;;;;;;;11.63;4.82;;;;;;;11.46;100.00;100867.88;5009891;28;20052;-67
2021/10/29 16:30:06;;;;;;;7.60;4.38;;;;;;;11.47;100.00;100859.00;4999927;28;20131;-67
2021/10/29 16:35:46;;;;;;;11.82;4.65;;;;;;;11.51;100.00;100862.53;5001448;28;20462;-66
2021/10/29 16:38:33;;;;;;;8.05;4.35;;;;;;;11.50;100.00;100869.63;4988653;28;20714;-68
2021/10/29 16:41:18;;;;;;;6.43;3.90;;;;;;;11.49;100.00;100869.63;4991989;28;20053;-67
2021/10/29 16:44:03;;;;;;;6.82;3.20;;;;;;;11.43;100.00;100859.06;4998024;28;20065;-65
2021/10/29 16:46:48;;;;;;;;;;;;;;;11.45;100.00;100860.81;5000981;28;20121;-64
2021/10/29 16:49:32;;;;;;;5.80;3.33;;;;;;;11.41;100.00;100860.81;5006229;28;20019;-65
2021/10/29 16:52:17;;;;;;;6.95;3.00;;;;;;;11.41;100.00;100861.72;5011992;28;20434;-66
2021/10/29 16:55:05;;;;;;;7.32;3.38;;;;;;;11.45;100.00;100865.22;4999652;28;20410;-65
2021/10/29 16:57:50;;;;;;;5.78;2.80;;;;;;;11.24;100.00;100854.72;5003835;28;20358;-65
2021/10/29 17:00:36;;;;;;;6.65;3.40;;;;;;;11.35;100.00;100858.22;5016561;28;20064;-65
2021/10/29 17:03:21;;;;;;;7.43;3.50;;;;;;;11.24;100.00;100862.69;5019058;28;20052;-66
2021/10/29 17:06:09;;;;;;;6.72;3.45;;;;;;;11.32;100.00;100864.41;5020644;28;20213;-66
2021/10/29 17:08:56;;;;;;;4.80;3.10;;;;;;;11.52;100.00;100865.16;5018997;28;20056;-66
2021/10/29 17:11:40;;;;;;;5.72;3.13;;;;;;;11.36;100.00;100855.53;5019856;28;20057;-68
2021/10/29 17:14:27;;;;;;;6.53;4.07;;;;;;;11.28;100.00;100853.81;5019258;28;20079;-68
2021/10/29 17:17:11;;;;;;;6.68;3.60;;;;;;;11.22;100.00;100856.50;5015023;28;20052;-68
2021/10/29 17:19:56;;;;;;;;;;;;;;;11.20;100.00;100847.66;5031063;28;20088;-71
2021/10/29 17:22:44;;;;;;;7.35;4.18;;;;;;;11.17;100.00;100853.88;5025906;28;19975;-69
2021/10/29 17:25:28;;;;;;;9.57;4.00;;;;;;;11.13;100.00;100854.78;5015529;28;20080;-77
2021/10/29 17:28:13;;;;;;;6.63;3.65;;;;;;;11.32;100.00;100863.53;5016966;28;20073;-64
2021/10/29 17:30:57;;;;;;;6.25;3.47;;;;;;;11.27;100.00;100862.69;5015394;28;20048;-66
2021/10/29 17:33:42;;;;;;;;;;;;;;;11.23;100.00;100861.78;5017536;28;20173;-67
2021/10/29 17:36:27;;;;;;;8.20;3.70;;;;;;;11.19;100.00;100867.16;5016929;28;20414;-66
2021/10/29 17:39:12;;;;;;;5.97;3.85;;;;;;;11.19;100.00;100864.50;5000311;28;20417;-69
2021/10/29 17:41:56;;;;;;;5.70;3.63;;;;;;;11.03;100.00;100857.50;5020263;28;20053;-71
2021/10/29 17:44:43;;;;;;;6.82;3.55;;;;;;;11.25;100.00;100861.78;5006866;28;20057;-70
2021/10/29 17:47:28;;;;;;;8.88;3.88;;;;;;;11.19;100.00;100857.41;5017464;28;20099;-73